createdAt,value
2022-11-26T00:00:49.455Z,26.85
2022-11-26T00:03:17.167Z,30.98
2022-11-26T00:05:46.742Z,29.20
2022-11-26T00:08:31.516Z,29.90
2022-11-26T00:10:59.047Z,26.85
2022-11-26T00:13:28.741Z,35.40
2022-11-26T00:15:57.158Z,26.83
2022-11-26T00:18:26.639Z,27.10
2022-11-26T00:20:55.901Z,31.10
2022-11-26T00:23:25.712Z,25.50
2022-11-26T00:26:01.426Z,24.33
2022-11-26T00:28:34.628Z,30.13
2022-11-26T00:31:04.107Z,26.08
2022-11-26T00:33:31.866Z,27.85
2022-11-26T00:36:14.475Z,26.35
2022-11-26T00:38:41.953Z,27.10
2022-11-26T00:41:18.224Z,24.45
2022-11-26T00:43:46.434Z,30.65
2022-11-26T00:46:15.296Z,25.45
2022-11-26T00:48:43.905Z,26.70
2022-11-26T00:51:26.210Z,29.00
2022-11-26T00:53:55.235Z,25.33
2022-11-26T00:56:23.011Z,28.27
2022-11-26T00:58:51.003Z,25.42
2022-11-26T01:01:21.296Z,27.27
2022-11-26T01:03:49.243Z,32.22
2022-11-26T01:06:21.235Z,26.85
2022-11-26T01:08:49.041Z,28.80
2022-11-26T01:11:19.182Z,32.30
2022-11-26T01:13:47.656Z,23.08
2022-11-26T01:16:18.826Z,27.52
2022-11-26T01:18:47.462Z,29.15
2022-11-26T01:21:15.773Z,28.60
2022-11-26T01:23:43.046Z,26.13
2022-11-26T01:26:23.864Z,26.42
2022-11-26T01:28:51.886Z,25.63
2022-11-26T01:31:22.011Z,27.30
2022-11-26T01:33:51.834Z,28.95
2022-11-26T01:36:25.203Z,29.90
2022-11-26T01:38:57.466Z,29.05
2022-11-26T01:41:44.077Z,24.25
2022-11-26T01:44:24.516Z,26.88
2022-11-26T01:46:52.662Z,26.58
2022-11-26T01:49:32.304Z,25.25
2022-11-26T01:52:24.792Z,22.95
2022-11-26T01:54:52.356Z,25.00
2022-11-26T01:57:27.018Z,25.00
2022-11-26T01:59:59.340Z,28.45
2022-11-26T02:02:27.665Z,25.60
2022-11-26T02:05:09.667Z,24.95
2022-11-26T02:07:39.073Z,26.58
2022-11-26T02:10:07.276Z,22.58
2022-11-26T02:12:34.662Z,26.60
2022-11-26T02:15:02.238Z,26.08
2022-11-26T02:17:37.202Z,25.38
2022-11-26T02:20:13.604Z,24.63
2022-11-26T02:22:46.976Z,24.67
2022-11-26T02:25:19.991Z,23.40
2022-11-26T02:27:58.553Z,24.90
2022-11-26T02:30:26.087Z,26.67
2022-11-26T02:33:12.550Z,25.75
2022-11-26T02:35:47.508Z,25.60
2022-11-26T02:38:24.156Z,25.48
2022-11-26T02:40:52.599Z,23.17
2022-11-26T02:43:20.648Z,27.33
2022-11-26T02:45:55.817Z,28.15
2022-11-26T02:48:27.767Z,25.48
2022-11-26T02:50:58.729Z,25.60
2022-11-26T02:53:29.289Z,27.27
2022-11-26T02:56:08.977Z,26.60
2022-11-26T05:38:14.057Z,20.60
2022-11-26T05:40:45.102Z,21.42
2022-11-26T05:43:19.215Z,23.35
2022-11-26T05:45:53.716Z,20.20
2022-11-26T05:48:22.529Z,18.90
2022-11-26T05:53:57.462Z,17.88
2022-11-26T05:56:59.932Z,21.73
2022-11-26T05:59:32.092Z,16.65
2022-11-26T06:02:00.377Z,21.55
2022-11-26T06:04:31.638Z,19.95
2022-11-26T06:07:14.322Z,19.80
2022-11-26T06:13:52.118Z,17.50
2022-11-26T06:19:07.209Z,22.05
2022-11-26T06:21:43.424Z,21.40
2022-11-26T06:24:27.959Z,21.98
2022-11-26T06:26:57.936Z,17.10
2022-11-26T06:29:28.312Z,15.20
2022-11-26T06:31:56.692Z,18.88
2022-11-26T06:34:24.367Z,17.98
2022-11-26T06:36:53.296Z,17.48
2022-11-26T06:39:21.021Z,15.70
2022-11-26T06:41:48.891Z,15.88
2022-11-26T06:44:17.006Z,17.05
2022-11-26T06:46:44.713Z,15.23
2022-11-26T06:49:12.623Z,18.40
2022-11-26T06:51:40.463Z,15.57
2022-11-26T06:54:08.041Z,17.50
2022-11-26T06:56:35.790Z,18.15
2022-11-26T06:59:03.227Z,20.33
2022-11-26T07:01:30.993Z,17.60
2022-11-26T07:03:59.323Z,20.92
2022-11-26T07:06:28.898Z,15.80
2022-11-26T07:08:58.239Z,14.38
2022-11-26T07:11:26.618Z,17.70
2022-11-26T07:13:54.340Z,14.10
2022-11-26T07:16:22.119Z,16.88
2022-11-26T07:18:51.800Z,15.70
2022-11-26T07:21:20.346Z,18.33
2022-11-26T07:23:50.820Z,17.08
2022-11-26T07:26:20.120Z,16.08
2022-11-26T07:28:47.984Z,22.95
2022-11-26T07:31:33.594Z,19.10
2022-11-26T07:34:01.749Z,16.05
2022-11-26T07:36:30.598Z,20.88
2022-11-26T07:38:59.262Z,22.23
2022-11-26T07:41:28.146Z,23.60
2022-11-26T07:43:55.638Z,22.92
2022-11-26T07:46:25.464Z,20.63
2022-11-26T07:48:54.945Z,16.58
2022-11-26T07:51:23.448Z,16.67
2022-11-26T07:53:51.154Z,18.58
2022-11-26T07:56:19.162Z,17.88
2022-11-26T07:58:46.975Z,15.80
2022-11-26T08:01:20.009Z,24.15
2022-11-26T08:03:48.533Z,19.95
2022-11-26T08:06:20.995Z,18.92
2022-11-26T08:08:51.489Z,18.83
2022-11-26T08:11:30.901Z,20.38
2022-11-26T08:14:03.956Z,20.05
2022-11-26T08:16:32.858Z,19.48
2022-11-26T08:19:05.736Z,18.23
2022-11-26T08:21:34.696Z,18.63
2022-11-26T08:24:03.770Z,18.13
2022-11-26T08:26:37.042Z,20.77
2022-11-26T08:29:06.387Z,14.80
2022-11-26T08:31:35.098Z,16.15
2022-11-26T08:34:03.458Z,14.10
2022-11-26T08:36:31.544Z,18.08
2022-11-26T08:39:00.435Z,15.85
2022-11-26T08:41:28.273Z,16.25
2022-11-26T08:44:11.164Z,16.42
2022-11-26T08:46:41.187Z,15.45
2022-11-26T08:49:12.213Z,16.55
2022-11-26T08:51:39.914Z,15.13
2022-11-26T08:54:07.379Z,14.10
2022-11-26T08:56:34.845Z,14.77
2022-11-26T08:59:02.601Z,17.02
2022-11-26T09:01:32.681Z,18.73
2022-11-26T09:04:02.089Z,16.45
2022-11-26T09:06:31.369Z,19.35
2022-11-26T09:09:15.798Z,16.80
2022-11-26T09:11:49.200Z,15.68
2022-11-26T09:14:19.302Z,17.38
2022-11-26T09:16:48.934Z,21.02
2022-11-26T09:19:19.591Z,17.95
2022-11-26T09:21:47.789Z,16.95
2022-11-26T09:24:16.779Z,18.42
2022-11-26T09:26:44.159Z,23.63
2022-11-26T09:29:16.435Z,14.93
2022-11-26T09:32:15.374Z,21.00
2022-11-26T09:34:33.879Z,23.33
2022-11-26T09:37:01.455Z,19.40
2022-11-26T09:39:29.219Z,23.70
2022-11-26T09:42:11.128Z,21.05
2022-11-26T09:45:05.023Z,21.85
2022-11-26T09:47:41.610Z,17.77
2022-11-26T09:50:11.550Z,26.15
2022-11-26T09:52:50.474Z,25.85
2022-11-26T09:55:19.978Z,22.60
2022-11-26T09:58:26.722Z,20.60
2022-11-26T10:01:00.838Z,25.80
2022-11-26T10:03:38.907Z,21.77
2022-11-26T10:06:21.692Z,25.52
2022-11-26T10:08:54.712Z,22.52
2022-11-26T10:11:31.399Z,19.90
2022-11-26T10:14:14.196Z,21.83
2022-11-26T10:16:44.194Z,22.73
2022-11-26T10:19:24.735Z,28.65
2022-11-26T10:22:00.795Z,25.98
2022-11-26T10:24:32.708Z,25.15
2022-11-26T10:27:10.039Z,19.60
2022-11-26T10:29:46.286Z,23.92
2022-11-26T10:32:16.938Z,29.63
2022-11-26T10:35:14.463Z,26.25
2022-11-26T10:37:41.889Z,23.58
2022-11-26T10:40:27.052Z,24.73
2022-11-26T10:43:08.385Z,25.00
2022-11-26T10:45:47.894Z,26.85
2022-11-26T10:48:34.048Z,19.52
2022-11-26T10:51:16.391Z,20.33
2022-11-26T10:53:58.625Z,24.52
2022-11-26T10:56:42.769Z,26.23
2022-11-26T10:59:22.588Z,25.63
2022-11-26T11:01:54.318Z,25.83
2022-11-26T11:04:29.694Z,26.08
2022-11-26T11:06:58.511Z,23.75
2022-11-26T11:09:33.640Z,22.83
2022-11-26T11:12:22.136Z,20.02
2022-11-26T11:14:51.415Z,21.90
2022-11-26T11:17:34.927Z,18.63
2022-11-26T11:20:39.362Z,19.15
2022-11-26T11:23:18.805Z,18.58
2022-11-26T11:25:57.622Z,17.40
2022-11-26T11:28:27.619Z,17.23
2022-11-26T11:31:09.061Z,18.08
2022-11-26T11:33:36.701Z,18.48
2022-11-26T11:36:18.645Z,18.10
2022-11-26T11:38:52.363Z,15.70
2022-11-26T11:41:27.358Z,16.02
2022-11-26T11:44:23.992Z,17.52
2022-11-26T11:47:29.807Z,16.38
2022-11-26T11:50:03.729Z,18.58
2022-11-26T11:53:30.252Z,14.82
2022-11-26T11:56:21.153Z,15.95
2022-11-26T11:59:13.300Z,15.40
2022-11-26T12:02:00.771Z,16.73
2022-11-26T12:04:43.396Z,14.65
2022-11-26T12:07:34.975Z,13.32
2022-11-26T12:10:05.705Z,14.52
2022-11-26T12:12:38.701Z,10.10
2022-11-26T12:15:51.897Z,14.38
2022-11-26T12:18:27.317Z,16.92
2022-11-26T12:20:59.404Z,15.40
2022-11-26T12:23:32.608Z,13.35
2022-11-26T12:26:06.372Z,16.70
2022-11-26T12:28:39.085Z,14.90
2022-11-26T12:31:19.770Z,17.38
2022-11-26T12:34:04.156Z,17.90
2022-11-26T12:37:16.761Z,14.45
2022-11-26T12:40:07.501Z,11.80
2022-11-26T12:42:44.363Z,14.13
2022-11-26T12:45:34.333Z,13.02
2022-11-26T12:48:07.838Z,12.35
2022-11-26T12:50:42.880Z,11.93
2022-11-26T12:53:19.550Z,14.00
2022-11-26T12:55:52.056Z,13.23
2022-11-26T12:58:24.450Z,13.52
2022-11-26T13:00:54.710Z,12.68
2022-11-26T13:03:30.534Z,13.23
2022-11-26T13:06:35.801Z,12.98
2022-11-26T13:09:37.245Z,14.35
2022-11-26T13:12:11.536Z,15.68
2022-11-26T13:14:54.051Z,14.18
2022-11-26T13:17:45.042Z,14.63
2022-11-26T13:20:14.983Z,14.95
2022-11-26T13:23:03.881Z,12.95
2022-11-26T14:04:10.964Z,16.67
2022-11-26T14:07:04.862Z,16.25
2022-11-26T14:09:47.400Z,16.35
2022-11-26T14:12:16.431Z,20.02
2022-11-26T14:14:47.844Z,19.98
2022-11-26T14:17:24.920Z,17.77
2022-11-26T14:19:55.980Z,13.93
2022-11-26T14:29:34.975Z,13.95
2022-11-26T14:32:16.751Z,14.45
2022-11-26T14:41:09.221Z,16.02
2022-11-26T14:46:33.133Z,14.88
2022-11-26T14:49:02.059Z,15.65
2022-11-26T14:51:34.303Z,16.00
2022-11-26T14:54:31.344Z,17.20
2022-11-26T14:57:10.610Z,14.82
2022-11-26T14:59:55.039Z,15.73
2022-11-26T15:02:30.502Z,14.93
2022-11-26T15:06:13.718Z,15.88
2022-11-26T15:12:42.020Z,13.60
2022-11-26T15:16:02.359Z,11.95
2022-11-26T15:21:51.058Z,15.27
2022-11-26T15:24:20.987Z,19.00
2022-11-26T15:29:56.308Z,17.00
2022-11-26T15:32:31.644Z,19.48
2022-11-26T15:35:02.463Z,19.85
2022-11-26T15:40:26.482Z,18.98
2022-11-26T15:43:11.177Z,17.52
2022-11-26T15:45:47.476Z,18.67
2022-11-26T15:48:50.552Z,20.42
2022-11-26T15:51:51.991Z,18.10
2022-11-26T15:54:26.404Z,19.48
2022-11-26T15:57:08.151Z,16.38
2022-11-26T15:59:45.647Z,19.13
2022-11-26T16:02:22.069Z,18.58
2022-11-26T16:05:31.723Z,19.75
2022-11-26T16:09:01.984Z,19.42
2022-11-26T16:11:38.202Z,15.60
2022-11-26T16:14:40.097Z,15.52
2022-11-26T16:17:36.447Z,16.15
2022-11-26T16:23:45.462Z,16.75
2022-11-26T16:33:56.057Z,15.07
2022-11-26T16:36:38.760Z,15.38
2022-11-26T16:42:18.307Z,17.83
2022-11-26T16:45:04.151Z,16.20
2022-11-26T16:47:39.656Z,13.93
2022-11-26T16:50:21.226Z,16.65
2022-11-26T16:56:12.908Z,16.98
2022-11-26T16:58:59.126Z,16.98
2022-11-26T17:01:49.782Z,14.27
2022-11-26T17:04:32.131Z,18.90
2022-11-26T17:13:38.516Z,17.13
2022-11-26T17:16:35.923Z,16.70
2022-11-26T17:19:21.200Z,15.07
2022-11-26T17:25:20.636Z,16.63
2022-11-26T17:31:38.397Z,14.73
2022-11-26T17:34:15.537Z,14.27
2022-11-26T17:36:44.920Z,13.77
2022-11-26T17:39:13.025Z,18.25
2022-11-26T17:45:36.440Z,13.90
2022-11-26T17:48:09.942Z,16.67
2022-11-26T17:50:45.319Z,17.67
2022-11-26T17:53:23.507Z,16.75
2022-11-26T17:57:14.333Z,19.55
2022-11-26T17:59:56.535Z,19.20
2022-11-26T21:25:53.404Z,13.68
2022-11-26T21:28:20.796Z,15.30
2022-11-26T21:30:48.550Z,18.73
2022-11-26T21:33:15.887Z,15.82
2022-11-26T21:35:43.159Z,16.15
2022-11-26T21:38:11.200Z,15.38
2022-11-26T21:40:38.725Z,15.52
2022-11-26T21:43:05.993Z,13.63
2022-11-26T21:45:33.819Z,20.80
2022-11-26T21:48:01.072Z,13.88
2022-11-26T21:50:28.353Z,16.67
2022-11-26T21:52:55.672Z,17.35
2022-11-26T21:55:23.215Z,16.02
2022-11-26T21:57:50.497Z,16.42
2022-11-26T22:00:18.533Z,20.05
2022-11-26T22:02:47.415Z,15.40
2022-11-26T22:05:15.252Z,15.05
2022-11-26T22:07:43.155Z,17.73
2022-11-26T22:10:11.290Z,14.27
2022-11-26T22:12:40.859Z,16.98
2022-11-26T22:15:08.719Z,16.05
2022-11-26T22:17:36.517Z,15.55
2022-11-26T22:20:09.472Z,16.27
2022-11-26T22:22:37.401Z,16.90
2022-11-26T22:25:10.031Z,17.83
2022-11-26T22:27:43.229Z,15.35
2022-11-26T22:30:24.686Z,15.75
2022-11-26T22:32:53.296Z,18.15
2022-11-26T22:35:21.150Z,20.85
2022-11-26T22:37:49.194Z,18.25
2022-11-26T22:40:17.195Z,18.17
2022-11-26T22:42:46.766Z,15.02
2022-11-26T22:45:14.735Z,17.50
2022-11-26T22:47:48.511Z,14.40
2022-11-26T22:50:19.431Z,15.55
2022-11-26T22:52:53.277Z,14.15
2022-11-26T22:55:20.898Z,16.23
2022-11-26T22:57:49.021Z,12.75
2022-11-26T23:00:56.017Z,13.55
2022-11-26T23:03:26.637Z,12.57
2022-11-26T23:05:54.854Z,9.98
2022-11-26T23:08:25.394Z,12.68
2022-11-26T23:10:53.186Z,8.35
2022-11-26T23:13:20.718Z,6.57
2022-11-26T23:15:48.402Z,6.97
2022-11-26T23:18:18.532Z,6.63
2022-11-26T23:20:46.471Z,5.25
2022-11-26T23:23:14.195Z,7.20
2022-11-26T23:25:43.188Z,8.77
2022-11-26T23:28:12.485Z,9.63
2022-11-26T23:30:41.461Z,7.95
2022-11-26T23:33:09.577Z,8.00
2022-11-26T23:35:38.375Z,9.15
2022-11-26T23:38:07.667Z,12.38
2022-11-26T23:40:37.792Z,10.57
2022-11-26T23:43:08.613Z,12.45
2022-11-26T23:45:36.564Z,14.27
2022-11-26T23:48:05.824Z,10.35
2022-11-26T23:50:38.533Z,9.88
2022-11-26T23:53:06.657Z,10.05
2022-11-26T23:55:35.446Z,9.82
2022-11-26T23:58:03.190Z,10.43
